Latest Weather Observations for Cressy

IDT60801

Issued at 7:03 pm EDT Friday 30 January 2015 (issued every 30 minutes, with the page automatically refreshed every 10 minutes)

About weather observations | Map of weather stations | Latest weather observations for TAS | Other Formats
Station Details ID: 091306 Name: CRESSY RESEARCH STATION Lat: -41.73 Lon: 147.08 Height: 148.0 m
Data from the previous 72 hours. | See also: Recent months at Cressy
Date/Time
EDT
Temp
°C
App
Temp
°C
Dew
Point
Rel
Hum
%
Delta-T
°C
Wind Press
QNH
hPa
Press
MSL
hPa
Rain
since 9 am
mm
Dir
 
Spd
km/h
Gust
km/h
Spd
kts
Gust
kts
30/07:00pm 17.0 9.9 5.3 46 5.7 SE 32 43 17 23 - - 0.0
30/06:30pm 17.7 10.4 5.6 45 5.9 SE 33 44 18 24 - - 0.0
30/06:00pm 17.4 10.3 6.6 49 5.4 SE 33 48 18 26 - - 0.0
30/05:30pm 17.7 10.3 5.0 43 6.1 SSE 33 44 18 24 - - 0.0
30/05:00pm 17.4 8.9 5.0 44 6.0 SSE 39 56 21 30 - - 0.0
30/04:30pm 17.9 9.3 4.5 41 6.4 SSE 39 57 21 31 - - 0.0
30/04:05pm 18.8 11.7 5.6 42 6.5 SSE 32 50 17 27 - - 0.0
30/04:00pm 18.6 11.6 5.8 43 6.3 SSE 32 48 17 26 - - 0.0
30/03:41pm 18.8 10.9 6.0 43 6.4 SSE 37 61 20 33 - - 0.0
30/03:30pm 18.6 10.3 6.1 44 6.2 SSE 39 56 21 30 - - 0.0
30/03:00pm 19.2 12.0 6.0 42 6.6 S 33 54 18 29 - - 0.0
30/02:52pm 19.4 12.4 6.8 44 6.4 S 33 54 18 29 - - 0.0
30/02:30pm 18.8 11.7 6.6 45 6.1 S 33 44 18 24 - - 0.0
30/02:00pm 18.3 11.9 7.1 48 5.7 SE 30 43 16 23 - - 0.0
30/01:30pm 17.8 11.3 6.7 48 5.6 SSE 30 46 16 25 - - 0.0
30/01:22pm 18.2 12.1 6.7 47 5.8 SE 28 46 15 25 - - 0.0
30/01:00pm 17.1 10.6 6.3 49 5.3 SSE 30 44 16 24 - - 0.0
30/12:39pm 17.3 10.9 6.8 50 5.2 SSE 30 50 16 27 - - 0.0
30/12:30pm 17.9 12.1 6.1 46 5.8 SSE 26 41 14 22 - - 0.0
30/12:00pm 16.8 8.7 5.4 47 5.5 SE 37 54 20 29 - - 0.0
30/11:32am 17.3 9.7 7.4 52 5.0 SE 37 56 20 30 - - 0.0
30/11:30am 16.5 8.4 6.9 53 4.8 SE 39 56 21 30 - - 0.0
30/11:03am 15.4 8.3 8.2 62 3.7 SE 35 54 19 29 - - 0.0
30/11:00am 15.8 8.4 8.5 62 3.7 SE 37 54 20 29 - - 0.0
30/10:48am 15.8 8.6 7.6 58 4.1 SE 35 54 19 29 - - 0.0
30/10:30am 15.7 7.7 7.5 58 4.1 SE 39 50 21 27 - - 0.0
30/10:03am 16.2 9.4 6.9 54 4.6 SE 32 52 17 28 - - 0.0
30/10:00am 16.5 10.2 7.4 55 4.6 SE 30 39 16 21 - - 0.0
30/09:36am 15.0 7.4 7.5 61 3.7 SE 37 56 20 30 - - 0.0
30/09:30am 14.5 5.7 7.3 62 3.6 SE 43 57 23 31 - - 0.0
30/09:20am 14.5 6.4 6.8 60 3.8 SE 39 59 21 32 - - 0.0
30/09:00am 14.5 6.7 6.6 59 3.9 SE 37 50 20 27 - - 0.0
30/08:43am 14.2 6.8 6.8 61 3.6 SE 35 57 19 31 - - 0.0
30/08:30am 14.5 8.3 8.0 65 3.3 SE 30 44 16 24 - - 0.0
30/08:14am 13.6 6.8 6.9 64 3.3 SE 32 50 17 27 - - 0.0
30/08:00am 13.5 7.4 6.8 64 3.3 SE 28 39 15 21 - - 0.0
30/07:30am 13.3 6.8 6.4 63 3.3 SE 30 41 16 22 - - 0.0
30/07:00am 12.6 5.8 6.9 68 2.8 SE 32 48 17 26 - - 0.0
30/06:30am 12.5 6.3 6.3 66 3.0 SE 28 41 15 22 - - 0.0
30/06:00am 12.2 7.0 5.4 63 3.2 SE 22 30 12 16 - - 0.0
30/05:30am 12.0 6.3 5.0 62 3.2 SE 24 35 13 19 - - 0.0
30/05:00am 12.2 6.3 3.9 57 3.8 SE 24 37 13 20 - - 0.0
30/04:30am 12.3 4.9 3.8 56 3.8 SE 32 44 17 24 - - 0.0
30/04:00am 12.1 7.3 4.6 60 3.4 SSE 19 28 10 15 - - 0.0
30/03:30am 12.2 7.2 4.4 59 3.6 SSE 20 30 11 16 - - 0.0
30/03:00am 12.4 7.0 4.6 59 3.6 SSE 22 30 12 16 - - 0.0
30/02:30am 12.1 7.6 4.3 59 3.6 SSE 17 26 9 14 - - 0.0
30/02:00am 11.8 7.0 4.8 62 3.2 SE 19 28 10 15 - - 0.0
30/01:30am 12.1 6.0 4.6 60 3.4 SE 26 33 14 18 - - 0.0
30/01:00am 12.0 6.2 4.5 60 3.4 SE 24 33 13 18 - - 0.0
30/12:30am 12.4 6.9 4.1 57 3.8 SE 22 35 12 19 - - 0.0
30/12:00am 12.6 7.0 3.5 54 4.1 SSE 22 32 12 17 - - 0.0
 
Date/Time
EDT
Temp
°C
App
Temp
°C
Dew
Point
Rel
Hum
%
Delta-T
°C
Wind Press
QNH
hPa
Press
MSL
hPa
Rain
since 9 am
mm
Dir
 
Spd
km/h
Gust
km/h
Spd
kts
Gust
kts
29/11:33pm 12.1 5.5 4.3 59 3.6 SE 28 46 15 25 - - 0.0
29/11:30pm 12.1 4.8 4.3 59 3.6 SE 32 46 17 25 - - 0.0
29/11:00pm 12.2 4.8 4.2 58 3.6 SE 32 46 17 25 - - 0.0
29/10:30pm 12.3 5.2 3.5 55 3.9 SE 30 39 16 21 - - 0.0
29/10:00pm 12.9 6.6 3.8 54 4.1 SE 26 35 14 19 - - 0.0
29/09:30pm 13.0 6.0 3.9 54 4.1 SE 30 43 16 23 - - 0.0
29/09:16pm 13.3 6.2 3.4 51 4.5 SE 30 54 16 29 - - 0.0
29/09:00pm 12.9 5.9 4.1 55 4.0 SE 30 44 16 24 - - 0.0
29/08:30pm 13.4 5.6 4.8 56 4.0 SE 35 46 19 25 - - 0.0
29/08:00pm 14.4 7.0 5.0 53 4.4 SE 33 43 18 23 - - 0.0
29/07:30pm 15.1 8.3 5.3 52 4.7 SE 30 41 16 22 - - 0.0
29/07:00pm 16.3 9.5 5.3 48 5.3 SE 30 41 16 22 - - 0.0
29/06:30pm 17.5 11.6 4.1 41 6.3 SE 24 37 13 20 - - 0.0
29/06:00pm 17.8 11.9 4.0 40 6.5 SSE 24 37 13 20 - - 0.0
29/05:30pm 18.9 13.1 4.3 38 7.0 SSE 24 35 13 19 - - 0.0
29/05:00pm 17.8 11.5 4.0 40 6.5 SSE 26 35 14 19 - - 0.0
29/04:30pm 18.6 12.9 5.1 41 6.6 SSE 24 33 13 18 - - 0.0
29/04:00pm 17.3 11.9 4.6 43 6.1 S 22 32 12 17 - - 0.0
29/03:30pm 18.0 13.0 4.6 41 6.4 SSE 20 32 11 17 - - 0.0
29/03:00pm 17.5 11.3 4.1 41 6.3 SSE 26 35 14 19 - - 0.0
29/02:30pm 18.1 11.5 4.3 40 6.6 SE 28 41 15 22 - - 0.0
29/02:00pm 17.9 12.9 4.5 41 6.4 SSE 20 33 11 18 - - 0.0
29/01:30pm 19.2 12.4 4.9 39 7.0 SE 30 41 16 22 - - 0.0
29/01:00pm 19.0 11.6 4.0 37 7.2 SE 32 44 17 24 - - 0.0
29/12:30pm 19.0 11.5 4.7 39 6.9 SE 33 44 18 24 - - 0.0
29/12:15pm 19.5 12.4 5.6 40 6.9 SSE 32 54 17 29 - - 0.0
29/12:00pm 19.9 12.8 5.5 39 7.1 SE 32 44 17 24 - - 0.0
29/11:30am 18.8 12.5 5.6 42 6.5 SE 28 41 15 22 - - 0.0
29/11:00am 17.6 10.4 4.9 43 6.1 SSE 32 44 17 24 - - 0.0
29/10:30am 15.9 8.7 5.2 49 5.1 SE 32 56 17 30 - - 0.0
29/10:27am 15.7 9.3 5.0 49 5.1 SE 28 56 15 30 - - 0.0
29/10:00am 15.7 8.7 4.1 46 5.4 SSE 30 41 16 22 - - 0.0
29/09:30am 14.6 7.2 4.9 52 4.6 SE 33 44 18 24 - - 0.0
29/09:00am 14.3 6.3 3.7 49 4.9 SE 35 48 19 26 - - 0.0
29/08:30am 13.6 6.9 3.7 51 4.5 SE 28 37 15 20 - - 0.0
29/08:00am 13.7 8.2 4.0 52 4.5 SE 22 32 12 17 - - 0.0
29/07:30am 12.8 8.4 5.0 59 3.6 SE 17 22 9 12 - - 0.0
29/07:00am 11.2 6.4 4.4 63 3.1 SSE 19 24 10 13 - - 0.0
29/06:30am 11.4 5.6 4.6 63 3.1 SE 24 33 13 18 - - 0.0
29/06:00am 10.8 6.0 5.6 70 2.4 SE 20 28 11 15 - - 0.0
29/05:30am 11.0 5.9 6.2 72 2.3 SE 22 30 12 16 - - 0.0
29/05:00am 10.5 5.5 6.3 75 2.0 SE 22 32 12 17 - - 0.0
29/04:30am 9.8 5.2 6.3 79 1.6 SE 20 28 11 15 - - 0.0
29/04:00am 8.5 4.7 3.9 73 2.0 SE 13 19 7 10 - - 0.0
29/03:30am 10.4 5.9 4.1 65 2.8 SSE 17 24 9 13 - - 0.0
29/03:00am 11.1 6.2 4.3 63 3.1 S 19 30 10 16 - - 0.0
29/02:30am 11.3 5.9 4.7 64 3.0 SSE 22 32 12 17 - - 0.0
29/02:00am 11.3 6.4 5.0 65 2.9 SSE 20 32 11 17 - - 0.0
29/01:30am 11.4 5.7 5.1 65 2.9 SE 24 32 13 17 - - 0.0
29/01:00am 11.4 5.5 5.7 68 2.7 SE 26 37 14 20 - - 0.0
29/12:30am 12.0 5.6 5.4 64 3.1 SE 28 41 15 22 - - 0.0
29/12:00am 12.2 6.9 5.1 62 3.3 SSE 22 32 12 17 - - 0.0
 
Date/Time
EDT
Temp
°C
App
Temp
°C
Dew
Point
Rel
Hum
%
Delta-T
°C
Wind Press
QNH
hPa
Press
MSL
hPa
Rain
since 9 am
mm
Dir
 
Spd
km/h
Gust
km/h
Spd
kts
Gust
kts
28/11:30pm 11.3 6.6 6.2 71 2.4 SE 20 30 11 16 - - 0.0
28/11:00pm 12.1 5.8 5.7 65 3.0 SE 28 37 15 20 - - 0.0
28/10:30pm 12.2 5.5 5.8 65 3.0 SE 30 41 16 22 - - 0.0
28/10:00pm 12.4 6.8 5.3 62 3.3 ESE 24 35 13 19 - - 0.0
28/09:30pm 12.8 6.8 5.5 61 3.4 ESE 26 35 14 19 - - 0.0
28/09:00pm 13.0 7.2 4.2 55 4.0 SE 24 35 13 19 - - 0.0
28/08:30pm 13.7 7.4 4.0 52 4.5 SE 26 33 14 18 - - 0.0
28/08:00pm 14.9 8.1 3.1 45 5.4 SE 28 37 15 20 - - 0.0
28/07:30pm 15.6 8.1 3.4 44 5.6 SE 32 46 17 25 - - 0.0
28/07:00pm 15.7 8.1 2.8 42 5.9 SE 32 41 17 22 - - 0.0
28/06:30pm 16.8 8.6 2.8 39 6.4 SE 35 46 19 25 - - 0.0
28/06:00pm 17.5 8.8 2.3 36 6.9 SE 37 50 20 27 - - 0.0
28/05:30pm 16.7 8.4 2.3 38 6.5 SE 35 50 19 27 - - 0.0
28/05:00pm 17.2 9.4 2.8 38 6.6 SE 33 46 18 25 - - 0.0
28/04:30pm 18.6 10.5 3.3 36 7.2 SE 35 44 19 24 - - 0.0
28/04:00pm 19.0 10.3 4.0 37 7.2 SE 39 50 21 27 - - 0.0
28/03:30pm 18.2 10.7 3.7 38 6.9 SE 32 46 17 25 - - 0.0
28/03:00pm 18.9 11.0 4.3 38 7.0 SE 35 50 19 27 - - 0.0
28/02:48pm 18.9 10.9 3.9 37 7.2 SE 35 54 19 29 - - 0.0
28/02:30pm 19.7 11.7 3.8 35 7.6 SE 35 50 19 27 - - 0.0
28/02:24pm 19.2 11.9 4.6 38 7.1 SE 32 50 17 27 - - 0.0
28/02:00pm 18.7 11.9 5.2 41 6.6 SE 30 39 16 21 - - 0.0
28/01:30pm 18.7 11.9 6.9 46 6.0 ESE 32 44 17 24 - - 0.0
28/01:00pm 18.7 12.1 4.1 38 7.0 SSE 28 43 15 23 - - 0.0
28/12:30pm 16.4 10.5 5.7 49 5.2 ESE 26 39 14 21 - - 0.0
28/12:00pm 16.5 9.8 5.5 48 5.3 SE 30 43 16 23 - - 0.0
28/11:30am 15.8 9.8 5.4 50 5.0 SE 26 35 14 19 - - 0.0
28/11:00am 16.2 9.7 4.9 47 5.4 SE 28 50 15 27 - - 0.0
28/10:59am 16.6 10.2 5.3 47 5.4 SE 28 50 15 27 - - 0.0
28/10:30am 17.5 11.4 6.4 48 5.5 ESE 28 41 15 22 - - 0.0
28/10:00am 16.3 10.0 5.6 49 5.2 SE 28 41 15 22 - - 0.0
28/09:30am 15.2 10.2 4.6 49 5.0 SE 20 30 11 16 - - 0.0
28/09:00am 15.0 10.3 5.2 52 4.7 ESE 19 26 10 14 - - 0.0
28/08:30am 13.4 8.9 6.3 62 3.4 ESE 19 24 10 13 - - 0.0
28/08:00am 12.4 8.5 6.9 69 2.7 ESE 17 20 9 11 - - 0.0
28/07:30am 11.2 7.2 6.5 73 2.2 ESE 17 20 9 11 - - 0.0
28/07:00am 10.1 5.6 6.3 77 1.8 SE 19 22 10 12 - - 0.0
28/06:30am 9.4 5.0 6.5 82 1.4 SE 19 24 10 13 - - 0.0
28/06:00am 9.3 4.9 6.6 83 1.3 SE 19 24 10 13 - - 0.0
28/05:30am 9.8 5.0 7.4 85 1.2 SSE 22 28 12 15 - - 0.0
28/05:00am 9.1 5.6 7.1 87 0.9 ESE 15 19 8 10 - - 0.0
28/04:30am 9.5 5.6 6.9 84 1.2 ESE 17 20 9 11 - - 0.0
28/04:00am 10.3 5.9 7.5 83 1.4 ESE 20 26 11 14 - - 0.0
28/03:30am 10.3 6.2 7.7 84 1.3 ESE 19 26 10 14 - - 0.0
28/03:00am 10.9 6.3 8.3 84 1.3 ESE 22 30 12 16 - - 0.0
28/02:30am 11.2 6.8 8.8 85 1.2 ESE 22 32 12 17 - - 0.0
28/02:00am 11.6 6.0 8.6 82 1.5 SE 28 37 15 20 - - 0.0
28/01:30am 12.5 8.3 8.4 76 2.0 ESE 20 28 11 15 - - 0.0
28/01:00am 12.4 8.9 8.7 78 1.9 ESE 17 20 9 11 - - 0.0
28/12:30am 12.6 8.8 8.9 78 1.9 ESE 19 26 10 14 - - 0.0
28/12:00am 12.3 8.7 8.4 77 1.9 SE 17 24 9 13 - - 0.0
 
Date/Time
EDT
Temp
°C
App
Temp
°C
Dew
Point
Rel
Hum
%
Delta-T
°C
Wind Press
QNH
hPa
Press
MSL
hPa
Rain
since 9 am
mm
Dir
 
Spd
km/h
Gust
km/h
Spd
kts
Gust
kts
27/11:30pm 13.2 9.2 8.3 72 2.5 SE 19 24 10 13 - - 0.0
27/11:00pm 13.6 10.0 8.2 70 2.7 SE 17 24 9 13 - - 0.0
27/10:30pm 13.8 9.8 8.2 69 2.8 SE 19 24 10 13 - - 0.0
27/10:00pm 14.0 10.0 8.4 69 2.8 SE 19 26 10 14 - - 0.0
27/09:30pm 13.8 8.8 8.0 68 2.9 SE 24 30 13 16 - - 0.0
27/09:00pm 14.1 9.1 7.9 66 3.1 SE 24 32 13 17 - - 0.0
27/08:30pm 15.1 8.8 7.4 60 3.8 SE 30 43 16 23 - - 0.0
27/08:00pm 15.7 8.9 7.0 56 4.3 SE 32 43 17 23 - - 0.0
27/07:30pm 16.8 10.0 6.9 52 4.9 SE 32 41 17 22 - - 0.0

Other Formats:

Comma delimited format used in spreadsheet applications
http://www.bom.gov.au/fwo/IDT60801/IDT60801.95969.axf

JavaScript Object Notation format (JSON) in row-major order
http://www.bom.gov.au/fwo/IDT60801/IDT60801.95969.json